sensor_id;sensor_type;location;lat;lon;timestamp;P1;durP1;ratioP1;P2;durP2;ratioP2
66012;SDS011;52783;50.502;8.190;2023-09-07T00:01:17;4.05;;;2.70;;
66012;SDS011;52783;50.502;8.190;2023-09-07T00:03:43;7.25;;;3.55;;
66012;SDS011;52783;50.502;8.190;2023-09-07T00:06:09;11.35;;;3.30;;
66012;SDS011;52783;50.502;8.190;2023-09-07T00:08:34;11.73;;;3.80;;
66012;SDS011;52783;50.502;8.190;2023-09-07T00:11:04;4.68;;;3.40;;
66012;SDS011;52783;50.502;8.190;2023-09-07T00:13:30;14.32;;;3.78;;
66012;SDS011;52783;50.502;8.190;2023-09-07T00:15:58;6.07;;;3.45;;
66012;SDS011;52783;50.502;8.190;2023-09-07T00:18:25;9.57;;;3.58;;
66012;SDS011;52783;50.502;8.190;2023-09-07T00:20:50;5.13;;;3.30;;
66012;SDS011;52783;50.502;8.190;2023-09-07T00:23:16;4.35;;;3.17;;
66012;SDS011;52783;50.502;8.190;2023-09-07T00:25:41;6.15;;;3.20;;
66012;SDS011;52783;50.502;8.190;2023-09-07T00:28:07;4.35;;;3.22;;
66012;SDS011;52783;50.502;8.190;2023-09-07T00:30:33;4.32;;;3.00;;
66012;SDS011;52783;50.502;8.190;2023-09-07T00:32:58;7.18;;;3.17;;
66012;SDS011;52783;50.502;8.190;2023-09-07T00:35:24;4.30;;;3.13;;
66012;SDS011;52783;50.502;8.190;2023-09-07T00:37:49;3.53;;;3.00;;
66012;SDS011;52783;50.502;8.190;2023-09-07T00:40:15;3.63;;;2.90;;
66012;SDS011;52783;50.502;8.190;2023-09-07T00:42:40;7.00;;;3.40;;
66012;SDS011;52783;50.502;8.190;2023-09-07T00:45:06;5.75;;;3.47;;
66012;SDS011;52783;50.502;8.190;2023-09-07T00:47:32;12.60;;;3.17;;
66012;SDS011;52783;50.502;8.190;2023-09-07T00:50:00;4.93;;;3.10;;
66012;SDS011;52783;50.502;8.190;2023-09-07T00:52:26;7.03;;;3.20;;
66012;SDS011;52783;50.502;8.190;2023-09-07T00:54:52;5.18;;;2.92;;
66012;SDS011;52783;50.502;8.190;2023-09-07T00:57:18;4.07;;;2.88;;
66012;SDS011;52783;50.502;8.190;2023-09-07T00:59:43;9.40;;;3.35;;
66012;SDS011;52783;50.502;8.190;2023-09-07T01:02:09;6.47;;;3.25;;
66012;SDS011;52783;50.502;8.190;2023-09-07T01:04:34;9.27;;;3.78;;
66012;SDS011;52783;50.502;8.190;2023-09-07T01:07:02;6.13;;;3.53;;
66012;SDS011;52783;50.502;8.190;2023-09-07T01:09:34;6.72;;;3.13;;
66012;SDS011;52783;50.502;8.190;2023-09-07T01:12:02;8.60;;;3.30;;
66012;SDS011;52783;50.502;8.190;2023-09-07T01:14:27;6.20;;;3.38;;
66012;SDS011;52783;50.502;8.190;2023-09-07T01:16:53;6.82;;;3.15;;
66012;SDS011;52783;50.502;8.190;2023-09-07T01:19:19;6.85;;;3.20;;
66012;SDS011;52783;50.502;8.190;2023-09-07T01:21:44;8.52;;;3.33;;
66012;SDS011;52783;50.502;8.190;2023-09-07T01:24:11;7.47;;;3.10;;
66012;SDS011;52783;50.502;8.190;2023-09-07T01:26:38;9.85;;;3.22;;
66012;SDS011;52783;50.502;8.190;2023-09-07T01:29:05;5.43;;;3.30;;
66012;SDS011;52783;50.502;8.190;2023-09-07T01:31:33;6.00;;;3.58;;
66012;SDS011;52783;50.502;8.190;2023-09-07T01:36:29;6.82;;;3.17;;
66012;SDS011;52783;50.502;8.190;2023-09-07T01:38:54;6.53;;;3.58;;
66012;SDS011;52783;50.502;8.190;2023-09-07T01:41:20;5.25;;;3.75;;
66012;SDS011;52783;50.502;8.190;2023-09-07T01:43:46;6.90;;;2.90;;
66012;SDS011;52783;50.502;8.190;2023-09-07T01:46:11;6.20;;;3.50;;
66012;SDS011;52783;50.502;8.190;2023-09-07T01:48:37;10.13;;;3.20;;
66012;SDS011;52783;50.502;8.190;2023-09-07T01:51:02;6.90;;;3.42;;
66012;SDS011;52783;50.502;8.190;2023-09-07T01:53:28;6.50;;;3.28;;
66012;SDS011;52783;50.502;8.190;2023-09-07T01:55:54;3.88;;;3.20;;
66012;SDS011;52783;50.502;8.190;2023-09-07T01:58:20;6.93;;;3.33;;
66012;SDS011;52783;50.502;8.190;2023-09-07T02:00:46;6.65;;;3.20;;
66012;SDS011;52783;50.502;8.190;2023-09-07T02:03:12;8.82;;;3.28;;
66012;SDS011;52783;50.502;8.190;2023-09-07T02:05:38;6.13;;;3.45;;
66012;SDS011;52783;50.502;8.190;2023-09-07T02:08:04;4.22;;;3.30;;
66012;SDS011;52783;50.502;8.190;2023-09-07T02:10:30;5.70;;;3.75;;
66012;SDS011;52783;50.502;8.190;2023-09-07T02:12:55;12.98;;;3.45;;
66012;SDS011;52783;50.502;8.190;2023-09-07T02:15:23;5.75;;;3.40;;
66012;SDS011;52783;50.502;8.190;2023-09-07T02:17:48;9.25;;;3.50;;
66012;SDS011;52783;50.502;8.190;2023-09-07T02:20:14;7.72;;;3.45;;
66012;SDS011;52783;50.502;8.190;2023-09-07T02:22:40;8.82;;;3.17;;
66012;SDS011;52783;50.502;8.190;2023-09-07T02:25:06;6.68;;;3.42;;
66012;SDS011;52783;50.502;8.190;2023-09-07T02:27:32;12.52;;;3.20;;
66012;SDS011;52783;50.502;8.190;2023-09-07T02:29:59;5.35;;;3.53;;
66012;SDS011;52783;50.502;8.190;2023-09-07T02:32:24;7.43;;;3.63;;
66012;SDS011;52783;50.502;8.190;2023-09-07T02:34:50;7.10;;;3.50;;
66012;SDS011;52783;50.502;8.190;2023-09-07T02:37:15;4.88;;;3.15;;
66012;SDS011;52783;50.502;8.190;2023-09-07T02:39:41;3.92;;;3.47;;
66012;SDS011;52783;50.502;8.190;2023-09-07T02:42:07;5.32;;;3.17;;
66012;SDS011;52783;50.502;8.190;2023-09-07T02:44:32;10.88;;;3.20;;
66012;SDS011;52783;50.502;8.190;2023-09-07T02:46:58;5.97;;;3.63;;
66012;SDS011;52783;50.502;8.190;2023-09-07T02:49:24;7.43;;;3.42;;
66012;SDS011;52783;50.502;8.190;2023-09-07T02:51:49;8.82;;;3.97;;
66012;SDS011;52783;50.502;8.190;2023-09-07T02:54:15;5.68;;;3.20;;
66012;SDS011;52783;50.502;8.190;2023-09-07T02:56:40;5.22;;;3.20;;
66012;SDS011;52783;50.502;8.190;2023-09-07T02:59:06;7.32;;;3.67;;
66012;SDS011;52783;50.502;8.190;2023-09-07T03:01:31;5.55;;;3.38;;
66012;SDS011;52783;50.502;8.190;2023-09-07T03:03:57;6.30;;;3.40;;
66012;SDS011;52783;50.502;8.190;2023-09-07T03:06:22;6.43;;;3.17;;
66012;SDS011;52783;50.502;8.190;2023-09-07T03:08:48;8.70;;;3.53;;
66012;SDS011;52783;50.502;8.190;2023-09-07T03:11:13;12.63;;;4.15;;
66012;SDS011;52783;50.502;8.190;2023-09-07T03:13:39;4.40;;;3.33;;
66012;SDS011;52783;50.502;8.190;2023-09-07T03:16:05;5.25;;;3.47;;
66012;SDS011;52783;50.502;8.190;2023-09-07T03:18:31;4.93;;;3.20;;
66012;SDS011;52783;50.502;8.190;2023-09-07T03:20:58;5.72;;;3.83;;
66012;SDS011;52783;50.502;8.190;2023-09-07T03:23:24;5.80;;;3.60;;
66012;SDS011;52783;50.502;8.190;2023-09-07T03:25:50;5.13;;;3.70;;
66012;SDS011;52783;50.502;8.190;2023-09-07T03:28:16;5.50;;;3.80;;
66012;SDS011;52783;50.502;8.190;2023-09-07T03:30:41;5.80;;;3.85;;
66012;SDS011;52783;50.502;8.190;2023-09-07T03:33:07;4.53;;;3.65;;
66012;SDS011;52783;50.502;8.190;2023-09-07T03:35:32;8.15;;;3.75;;
66012;SDS011;52783;50.502;8.190;2023-09-07T03:37:58;9.20;;;3.55;;
66012;SDS011;52783;50.502;8.190;2023-09-07T03:40:24;5.53;;;3.83;;
66012;SDS011;52783;50.502;8.190;2023-09-07T03:42:49;9.98;;;4.20;;
66012;SDS011;52783;50.502;8.190;2023-09-07T03:45:15;10.18;;;3.88;;
66012;SDS011;52783;50.502;8.190;2023-09-07T03:47:41;6.65;;;3.90;;
66012;SDS011;52783;50.502;8.190;2023-09-07T03:50:07;6.05;;;3.90;;
66012;SDS011;52783;50.502;8.190;2023-09-07T03:52:33;7.03;;;4.05;;
66012;SDS011;52783;50.502;8.190;2023-09-07T03:54:59;4.97;;;3.38;;
66012;SDS011;52783;50.502;8.190;2023-09-07T03:57:25;5.60;;;4.10;;
66012;SDS011;52783;50.502;8.190;2023-09-07T03:59:52;6.53;;;3.92;;
66012;SDS011;52783;50.502;8.190;2023-09-07T04:02:18;7.07;;;3.80;;
66012;SDS011;52783;50.502;8.190;2023-09-07T04:04:47;7.38;;;4.15;;
66012;SDS011;52783;50.502;8.190;2023-09-07T04:07:17;9.45;;;4.18;;
66012;SDS011;52783;50.502;8.190;2023-09-07T04:09:43;8.75;;;3.60;;
66012;SDS011;52783;50.502;8.190;2023-09-07T04:12:11;8.30;;;3.95;;
66012;SDS011;52783;50.502;8.190;2023-09-07T04:14:37;7.47;;;3.88;;
66012;SDS011;52783;50.502;8.190;2023-09-07T04:17:03;8.20;;;3.42;;
66012;SDS011;52783;50.502;8.190;2023-09-07T04:19:29;7.03;;;4.00;;
66012;SDS011;52783;50.502;8.190;2023-09-07T04:21:55;7.18;;;3.85;;
66012;SDS011;52783;50.502;8.190;2023-09-07T04:24:21;9.38;;;4.15;;
66012;SDS011;52783;50.502;8.190;2023-09-07T04:26:47;6.45;;;3.83;;
66012;SDS011;52783;50.502;8.190;2023-09-07T04:29:12;6.90;;;3.90;;
66012;SDS011;52783;50.502;8.190;2023-09-07T04:31:38;13.68;;;4.03;;
66012;SDS011;52783;50.502;8.190;2023-09-07T04:34:04;13.13;;;4.53;;
66012;SDS011;52783;50.502;8.190;2023-09-07T04:36:29;9.90;;;3.90;;
66012;SDS011;52783;50.502;8.190;2023-09-07T04:38:55;9.43;;;4.47;;
66012;SDS011;52783;50.502;8.190;2023-09-07T04:41:20;5.55;;;4.18;;
66012;SDS011;52783;50.502;8.190;2023-09-07T04:43:46;7.55;;;4.25;;
66012;SDS011;52783;50.502;8.190;2023-09-07T04:46:12;10.82;;;4.40;;
66012;SDS011;52783;50.502;8.190;2023-09-07T04:48:38;9.77;;;3.95;;
66012;SDS011;52783;50.502;8.190;2023-09-07T04:51:06;7.88;;;3.90;;
66012;SDS011;52783;50.502;8.190;2023-09-07T04:53:33;8.55;;;4.20;;
66012;SDS011;52783;50.502;8.190;2023-09-07T04:56:00;15.70;;;3.95;;
66012;SDS011;52783;50.502;8.190;2023-09-07T04:58:27;12.18;;;4.10;;
66012;SDS011;52783;50.502;8.190;2023-09-07T05:00:52;8.07;;;4.15;;
66012;SDS011;52783;50.502;8.190;2023-09-07T05:03:18;8.00;;;4.10;;
66012;SDS011;52783;50.502;8.190;2023-09-07T05:05:43;10.38;;;4.00;;
66012;SDS011;52783;50.502;8.190;2023-09-07T05:08:09;7.43;;;4.40;;
66012;SDS011;52783;50.502;8.190;2023-09-07T05:10:35;6.70;;;4.13;;
66012;SDS011;52783;50.502;8.190;2023-09-07T05:13:01;6.07;;;3.90;;
66012;SDS011;52783;50.502;8.190;2023-09-07T05:15:27;20.70;;;4.80;;
66012;SDS011;52783;50.502;8.190;2023-09-07T05:17:53;16.80;;;4.32;;
66012;SDS011;52783;50.502;8.190;2023-09-07T05:20:19;6.45;;;3.83;;
66012;SDS011;52783;50.502;8.190;2023-09-07T05:22:45;6.10;;;3.55;;
66012;SDS011;52783;50.502;8.190;2023-09-07T05:25:11;10.45;;;4.10;;
66012;SDS011;52783;50.502;8.190;2023-09-07T05:27:37;6.68;;;3.72;;
66012;SDS011;52783;50.502;8.190;2023-09-07T05:30:03;7.35;;;3.38;;
66012;SDS011;52783;50.502;8.190;2023-09-07T05:32:29;6.85;;;3.65;;
66012;SDS011;52783;50.502;8.190;2023-09-07T05:34:55;6.90;;;3.50;;
66012;SDS011;52783;50.502;8.190;2023-09-07T05:37:20;8.27;;;3.90;;
66012;SDS011;52783;50.502;8.190;2023-09-07T05:39:46;7.90;;;3.88;;
66012;SDS011;52783;50.502;8.190;2023-09-07T05:42:12;7.40;;;3.75;;
66012;SDS011;52783;50.502;8.190;2023-09-07T05:44:38;6.38;;;3.55;;
66012;SDS011;52783;50.502;8.190;2023-09-07T05:47:03;6.75;;;3.70;;
66012;SDS011;52783;50.502;8.190;2023-09-07T05:49:29;9.48;;;4.20;;
66012;SDS011;52783;50.502;8.190;2023-09-07T05:51:55;6.95;;;3.78;;
66012;SDS011;52783;50.502;8.190;2023-09-07T05:54:21;7.22;;;3.28;;
66012;SDS011;52783;50.502;8.190;2023-09-07T05:56:47;4.90;;;3.30;;
66012;SDS011;52783;50.502;8.190;2023-09-07T05:59:12;10.30;;;3.60;;
66012;SDS011;52783;50.502;8.190;2023-09-07T06:01:38;7.70;;;3.40;;
66012;SDS011;52783;50.502;8.190;2023-09-07T06:04:04;6.43;;;3.92;;
66012;SDS011;52783;50.502;8.190;2023-09-07T06:06:30;7.10;;;3.40;;
66012;SDS011;52783;50.502;8.190;2023-09-07T06:08:56;7.70;;;3.38;;
66012;SDS011;52783;50.502;8.190;2023-09-07T06:11:24;8.77;;;3.70;;
66012;SDS011;52783;50.502;8.190;2023-09-07T06:13:49;8.15;;;3.55;;
66012;SDS011;52783;50.502;8.190;2023-09-07T06:16:15;11.48;;;3.63;;
66012;SDS011;52783;50.502;8.190;2023-09-07T06:18:41;4.10;;;3.28;;
66012;SDS011;52783;50.502;8.190;2023-09-07T06:21:06;10.88;;;3.55;;
66012;SDS011;52783;50.502;8.190;2023-09-07T06:23:32;6.20;;;3.67;;
66012;SDS011;52783;50.502;8.190;2023-09-07T06:25:57;14.40;;;3.88;;
66012;SDS011;52783;50.502;8.190;2023-09-07T06:28:23;8.25;;;3.50;;
66012;SDS011;52783;50.502;8.190;2023-09-07T06:30:48;5.55;;;3.50;;
66012;SDS011;52783;50.502;8.190;2023-09-07T06:33:14;8.98;;;3.35;;
66012;SDS011;52783;50.502;8.190;2023-09-07T06:35:39;12.75;;;3.65;;
66012;SDS011;52783;50.502;8.190;2023-09-07T06:38:05;5.30;;;3.60;;
66012;SDS011;52783;50.502;8.190;2023-09-07T06:40:30;9.40;;;3.40;;
66012;SDS011;52783;50.502;8.190;2023-09-07T06:42:56;5.57;;;3.20;;
66012;SDS011;52783;50.502;8.190;2023-09-07T06:45:22;6.45;;;3.47;;
66012;SDS011;52783;50.502;8.190;2023-09-07T06:47:51;6.65;;;3.55;;
66012;SDS011;52783;50.502;8.190;2023-09-07T06:50:17;6.40;;;3.47;;
66012;SDS011;52783;50.502;8.190;2023-09-07T06:52:44;8.10;;;3.67;;
66012;SDS011;52783;50.502;8.190;2023-09-07T06:55:10;8.90;;;3.50;;
66012;SDS011;52783;50.502;8.190;2023-09-07T06:57:35;12.48;;;3.90;;
66012;SDS011;52783;50.502;8.190;2023-09-07T07:00:02;4.07;;;3.20;;
66012;SDS011;52783;50.502;8.190;2023-09-07T07:02:30;12.63;;;3.42;;
66012;SDS011;52783;50.502;8.190;2023-09-07T07:04:56;8.88;;;3.70;;
66012;SDS011;52783;50.502;8.190;2023-09-07T07:07:21;4.93;;;2.97;;
66012;SDS011;52783;50.502;8.190;2023-09-07T07:09:47;4.30;;;3.30;;
66012;SDS011;52783;50.502;8.190;2023-09-07T07:12:12;7.50;;;3.33;;
66012;SDS011;52783;50.502;8.190;2023-09-07T07:14:38;6.95;;;3.30;;
66012;SDS011;52783;50.502;8.190;2023-09-07T07:17:04;10.18;;;3.28;;
66012;SDS011;52783;50.502;8.190;2023-09-07T07:19:30;4.18;;;3.17;;
66012;SDS011;52783;50.502;8.190;2023-09-07T07:21:56;4.38;;;3.28;;
66012;SDS011;52783;50.502;8.190;2023-09-07T07:24:21;4.57;;;3.40;;
66012;SDS011;52783;50.502;8.190;2023-09-07T07:26:47;8.45;;;3.65;;
66012;SDS011;52783;50.502;8.190;2023-09-07T07:29:13;9.35;;;3.30;;
66012;SDS011;52783;50.502;8.190;2023-09-07T07:31:38;8.55;;;3.60;;
66012;SDS011;52783;50.502;8.190;2023-09-07T07:34:04;5.80;;;3.30;;
66012;SDS011;52783;50.502;8.190;2023-09-07T07:36:29;8.43;;;3.53;;
66012;SDS011;52783;50.502;8.190;2023-09-07T07:38:55;9.45;;;3.70;;
66012;SDS011;52783;50.502;8.190;2023-09-07T07:41:21;7.90;;;3.33;;
66012;SDS011;52783;50.502;8.190;2023-09-07T07:43:47;9.38;;;3.75;;
66012;SDS011;52783;50.502;8.190;2023-09-07T07:46:12;8.77;;;3.42;;
66012;SDS011;52783;50.502;8.190;2023-09-07T07:48:40;10.27;;;3.28;;
66012;SDS011;52783;50.502;8.190;2023-09-07T07:51:06;7.10;;;3.40;;
66012;SDS011;52783;50.502;8.190;2023-09-07T07:53:33;9.90;;;3.70;;
66012;SDS011;52783;50.502;8.190;2023-09-07T07:55:59;5.30;;;3.15;;
66012;SDS011;52783;50.502;8.190;2023-09-07T07:58:25;5.13;;;3.20;;
66012;SDS011;52783;50.502;8.190;2023-09-07T08:00:50;8.38;;;3.30;;
66012;SDS011;52783;50.502;8.190;2023-09-07T08:03:16;8.75;;;3.60;;
66012;SDS011;52783;50.502;8.190;2023-09-07T08:05:42;6.05;;;3.28;;
66012;SDS011;52783;50.502;8.190;2023-09-07T08:08:08;7.07;;;3.30;;
66012;SDS011;52783;50.502;8.190;2023-09-07T08:10:36;6.55;;;3.05;;
66012;SDS011;52783;50.502;8.190;2023-09-07T08:13:03;6.10;;;3.40;;
66012;SDS011;52783;50.502;8.190;2023-09-07T08:15:29;3.65;;;2.83;;
66012;SDS011;52783;50.502;8.190;2023-09-07T08:17:54;5.20;;;3.00;;
66012;SDS011;52783;50.502;8.190;2023-09-07T08:20:21;6.35;;;3.38;;
66012;SDS011;52783;50.502;8.190;2023-09-07T08:22:47;4.70;;;3.22;;
66012;SDS011;52783;50.502;8.190;2023-09-07T08:25:12;6.60;;;3.05;;
66012;SDS011;52783;50.502;8.190;2023-09-07T08:27:39;9.10;;;3.45;;
66012;SDS011;52783;50.502;8.190;2023-09-07T08:30:10;10.20;;;3.70;;
66012;SDS011;52783;50.502;8.190;2023-09-07T08:32:41;8.00;;;3.47;;
66012;SDS011;52783;50.502;8.190;2023-09-07T08:35:08;8.55;;;3.50;;
66012;SDS011;52783;50.502;8.190;2023-09-07T08:37:37;7.28;;;3.35;;
66012;SDS011;52783;50.502;8.190;2023-09-07T08:40:03;6.60;;;3.40;;
66012;SDS011;52783;50.502;8.190;2023-09-07T08:42:31;7.35;;;3.30;;
66012;SDS011;52783;50.502;8.190;2023-09-07T08:44:56;12.02;;;3.55;;
66012;SDS011;52783;50.502;8.190;2023-09-07T08:47:25;9.13;;;3.33;;
66012;SDS011;52783;50.502;8.190;2023-09-07T08:49:54;5.30;;;3.10;;
66012;SDS011;52783;50.502;8.190;2023-09-07T08:52:22;5.72;;;3.22;;
66012;SDS011;52783;50.502;8.190;2023-09-07T08:54:48;4.80;;;2.97;;
66012;SDS011;52783;50.502;8.190;2023-09-07T08:57:14;8.50;;;3.42;;
66012;SDS011;52783;50.502;8.190;2023-09-07T08:59:40;5.97;;;3.38;;
66012;SDS011;52783;50.502;8.190;2023-09-07T09:02:09;7.00;;;3.13;;
66012;SDS011;52783;50.502;8.190;2023-09-07T09:04:36;8.52;;;3.63;;
66012;SDS011;52783;50.502;8.190;2023-09-07T09:07:02;8.27;;;3.58;;
66012;SDS011;52783;50.502;8.190;2023-09-07T09:09:28;7.72;;;3.47;;
66012;SDS011;52783;50.502;8.190;2023-09-07T09:11:54;11.48;;;3.17;;
66012;SDS011;52783;50.502;8.190;2023-09-07T09:14:31;12.02;;;4.28;;
66012;SDS011;52783;50.502;8.190;2023-09-07T09:16:56;4.55;;;3.47;;
66012;SDS011;52783;50.502;8.190;2023-09-07T09:19:29;12.23;;;3.70;;
66012;SDS011;52783;50.502;8.190;2023-09-07T09:21:59;6.35;;;3.20;;
66012;SDS011;52783;50.502;8.190;2023-09-07T09:24:25;7.07;;;3.58;;
66012;SDS011;52783;50.502;8.190;2023-09-07T09:26:50;6.78;;;3.80;;
66012;SDS011;52783;50.502;8.190;2023-09-07T09:29:16;10.18;;;3.20;;
66012;SDS011;52783;50.502;8.190;2023-09-07T09:31:46;6.70;;;3.60;;
66012;SDS011;52783;50.502;8.190;2023-09-07T09:34:12;5.68;;;3.42;;
66012;SDS011;52783;50.502;8.190;2023-09-07T09:36:42;15.60;;;3.55;;
66012;SDS011;52783;50.502;8.190;2023-09-07T09:39:08;9.00;;;3.35;;
66012;SDS011;52783;50.502;8.190;2023-09-07T09:41:34;10.73;;;3.55;;
66012;SDS011;52783;50.502;8.190;2023-09-07T09:44:02;11.88;;;3.47;;
66012;SDS011;52783;50.502;8.190;2023-09-07T09:46:28;5.30;;;3.85;;
66012;SDS011;52783;50.502;8.190;2023-09-07T09:48:56;4.68;;;2.92;;
66012;SDS011;52783;50.502;8.190;2023-09-07T09:51:22;7.13;;;3.30;;
66012;SDS011;52783;50.502;8.190;2023-09-07T09:53:49;7.78;;;3.55;;
66012;SDS011;52783;50.502;8.190;2023-09-07T09:56:16;9.25;;;3.38;;
66012;SDS011;52783;50.502;8.190;2023-09-07T09:58:42;4.43;;;3.28;;
66012;SDS011;52783;50.502;8.190;2023-09-07T10:01:08;10.05;;;3.60;;
66012;SDS011;52783;50.502;8.190;2023-09-07T10:03:39;9.13;;;3.33;;
66012;SDS011;52783;50.502;8.190;2023-09-07T10:06:11;6.72;;;3.05;;
66012;SDS011;52783;50.502;8.190;2023-09-07T10:08:50;5.78;;;3.10;;
66012;SDS011;52783;50.502;8.190;2023-09-07T10:11:29;6.03;;;3.25;;
66012;SDS011;52783;50.502;8.190;2023-09-07T10:14:05;7.18;;;3.50;;
66012;SDS011;52783;50.502;8.190;2023-09-07T10:16:44;14.02;;;3.70;;
66012;SDS011;52783;50.502;8.190;2023-09-07T10:21:41;5.10;;;3.25;;
66012;SDS011;52783;50.502;8.190;2023-09-07T10:24:07;10.07;;;3.90;;
66012;SDS011;52783;50.502;8.190;2023-09-07T10:26:33;7.15;;;3.40;;
66012;SDS011;52783;50.502;8.190;2023-09-07T10:28:59;5.72;;;3.30;;
66012;SDS011;52783;50.502;8.190;2023-09-07T10:31:26;5.03;;;3.35;;
66012;SDS011;52783;50.502;8.190;2023-09-07T10:33:52;3.13;;;2.90;;
66012;SDS011;52783;50.502;8.190;2023-09-07T10:36:21;14.68;;;3.50;;
66012;SDS011;52783;50.502;8.190;2023-09-07T10:38:51;7.85;;;3.53;;
66012;SDS011;52783;50.502;8.190;2023-09-07T10:41:19;4.60;;;3.25;;
66012;SDS011;52783;50.502;8.190;2023-09-07T10:43:49;6.55;;;3.50;;
66012;SDS011;52783;50.502;8.190;2023-09-07T10:46:21;5.20;;;3.50;;
66012;SDS011;52783;50.502;8.190;2023-09-07T10:48:49;6.38;;;3.40;;
66012;SDS011;52783;50.502;8.190;2023-09-07T10:51:16;5.90;;;3.80;;
66012;SDS011;52783;50.502;8.190;2023-09-07T10:53:42;11.45;;;3.45;;
66012;SDS011;52783;50.502;8.190;2023-09-07T10:56:08;8.57;;;3.20;;
66012;SDS011;52783;50.502;8.190;2023-09-07T10:58:34;8.18;;;3.20;;
66012;SDS011;52783;50.502;8.190;2023-09-07T11:01:03;3.75;;;3.28;;
66012;SDS011;52783;50.502;8.190;2023-09-07T11:03:30;5.45;;;3.33;;
66012;SDS011;52783;50.502;8.190;2023-09-07T11:06:17;5.38;;;3.15;;
66012;SDS011;52783;50.502;8.190;2023-09-07T11:08:44;5.50;;;3.20;;
66012;SDS011;52783;50.502;8.190;2023-09-07T11:11:10;11.18;;;3.20;;
66012;SDS011;52783;50.502;8.190;2023-09-07T11:13:37;7.80;;;3.05;;
66012;SDS011;52783;50.502;8.190;2023-09-07T11:16:02;5.85;;;3.08;;
66012;SDS011;52783;50.502;8.190;2023-09-07T11:18:31;7.38;;;3.55;;
66012;SDS011;52783;50.502;8.190;2023-09-07T11:21:01;11.35;;;3.00;;
66012;SDS011;52783;50.502;8.190;2023-09-07T11:23:29;4.97;;;3.47;;
66012;SDS011;52783;50.502;8.190;2023-09-07T11:26:01;7.85;;;3.00;;
66012;SDS011;52783;50.502;8.190;2023-09-07T11:28:30;8.02;;;3.28;;
66012;SDS011;52783;50.502;8.190;2023-09-07T11:30:55;7.13;;;3.30;;
66012;SDS011;52783;50.502;8.190;2023-09-07T11:33:21;8.82;;;3.10;;
66012;SDS011;52783;50.502;8.190;2023-09-07T11:35:47;4.75;;;3.17;;
66012;SDS011;52783;50.502;8.190;2023-09-07T11:38:14;7.13;;;2.95;;
66012;SDS011;52783;50.502;8.190;2023-09-07T11:40:40;6.63;;;3.03;;
66012;SDS011;52783;50.502;8.190;2023-09-07T11:43:13;11.18;;;3.30;;
66012;SDS011;52783;50.502;8.190;2023-09-07T11:45:40;10.13;;;3.40;;
66012;SDS011;52783;50.502;8.190;2023-09-07T11:48:07;9.63;;;3.88;;
66012;SDS011;52783;50.502;8.190;2023-09-07T11:50:35;4.95;;;3.10;;
66012;SDS011;52783;50.502;8.190;2023-09-07T11:53:02;6.32;;;3.30;;
66012;SDS011;52783;50.502;8.190;2023-09-07T11:55:28;10.38;;;3.20;;
66012;SDS011;52783;50.502;8.190;2023-09-07T11:57:53;4.53;;;2.78;;
66012;SDS011;52783;50.502;8.190;2023-09-07T12:00:19;6.50;;;3.20;;
66012;SDS011;52783;50.502;8.190;2023-09-07T12:02:45;5.63;;;2.92;;
66012;SDS011;52783;50.502;8.190;2023-09-07T12:05:10;5.43;;;3.20;;
66012;SDS011;52783;50.502;8.190;2023-09-07T12:07:39;7.03;;;3.08;;
66012;SDS011;52783;50.502;8.190;2023-09-07T12:10:06;5.53;;;3.20;;
66012;SDS011;52783;50.502;8.190;2023-09-07T12:12:35;9.90;;;3.45;;
66012;SDS011;52783;50.502;8.190;2023-09-07T12:15:07;5.15;;;3.10;;
66012;SDS011;52783;50.502;8.190;2023-09-07T12:17:34;3.78;;;2.83;;
66012;SDS011;52783;50.502;8.190;2023-09-07T12:20:00;6.00;;;3.10;;
66012;SDS011;52783;50.502;8.190;2023-09-07T12:22:26;9.32;;;3.00;;
66012;SDS011;52783;50.502;8.190;2023-09-07T12:24:52;8.10;;;3.30;;
66012;SDS011;52783;50.502;8.190;2023-09-07T12:27:18;3.97;;;2.90;;
66012;SDS011;52783;50.502;8.190;2023-09-07T12:29:44;3.72;;;2.80;;
66012;SDS011;52783;50.502;8.190;2023-09-07T12:32:10;13.75;;;3.25;;
66012;SDS011;52783;50.502;8.190;2023-09-07T12:34:36;6.03;;;3.10;;
66012;SDS011;52783;50.502;8.190;2023-09-07T12:37:02;6.63;;;2.80;;
66012;SDS011;52783;50.502;8.190;2023-09-07T12:39:31;7.53;;;3.15;;
66012;SDS011;52783;50.502;8.190;2023-09-07T12:41:57;9.90;;;3.08;;
66012;SDS011;52783;50.502;8.190;2023-09-07T12:44:23;8.00;;;2.80;;
66012;SDS011;52783;50.502;8.190;2023-09-07T12:46:48;3.05;;;2.75;;
66012;SDS011;52783;50.502;8.190;2023-09-07T12:49:14;5.05;;;2.75;;
66012;SDS011;52783;50.502;8.190;2023-09-07T12:51:40;6.00;;;3.00;;
66012;SDS011;52783;50.502;8.190;2023-09-07T12:54:06;5.60;;;2.80;;
66012;SDS011;52783;50.502;8.190;2023-09-07T12:56:31;3.88;;;2.60;;
66012;SDS011;52783;50.502;8.190;2023-09-07T12:58:57;4.85;;;2.50;;
66012;SDS011;52783;50.502;8.190;2023-09-07T13:01:24;6.15;;;2.72;;
66012;SDS011;52783;50.502;8.190;2023-09-07T13:03:53;6.32;;;2.80;;
66012;SDS011;52783;50.502;8.190;2023-09-07T13:06:18;6.22;;;2.70;;
66012;SDS011;52783;50.502;8.190;2023-09-07T13:08:44;3.80;;;2.95;;
66012;SDS011;52783;50.502;8.190;2023-09-07T13:11:10;8.90;;;2.90;;
66012;SDS011;52783;50.502;8.190;2023-09-07T13:13:36;4.25;;;2.80;;
66012;SDS011;52783;50.502;8.190;2023-09-07T13:16:02;3.70;;;2.90;;
66012;SDS011;52783;50.502;8.190;2023-09-07T13:18:28;3.13;;;2.80;;
66012;SDS011;52783;50.502;8.190;2023-09-07T13:20:53;6.38;;;2.80;;
66012;SDS011;52783;50.502;8.190;2023-09-07T13:23:26;7.18;;;2.80;;
66012;SDS011;52783;50.502;8.190;2023-09-07T13:25:53;4.32;;;2.47;;
66012;SDS011;52783;50.502;8.190;2023-09-07T13:28:19;6.68;;;2.80;;
66012;SDS011;52783;50.502;8.190;2023-09-07T13:30:45;6.95;;;2.97;;
66012;SDS011;52783;50.502;8.190;2023-09-07T13:33:10;13.60;;;3.00;;
66012;SDS011;52783;50.502;8.190;2023-09-07T13:35:36;4.55;;;3.10;;
66012;SDS011;52783;50.502;8.190;2023-09-07T13:38:02;4.80;;;3.17;;
66012;SDS011;52783;50.502;8.190;2023-09-07T13:40:27;3.83;;;2.92;;
66012;SDS011;52783;50.502;8.190;2023-09-07T13:42:54;4.72;;;3.22;;
66012;SDS011;52783;50.502;8.190;2023-09-07T13:45:21;3.78;;;2.70;;
66012;SDS011;52783;50.502;8.190;2023-09-07T13:47:47;3.35;;;2.88;;
66012;SDS011;52783;50.502;8.190;2023-09-07T13:50:12;3.08;;;2.78;;
66012;SDS011;52783;50.502;8.190;2023-09-07T13:52:38;4.30;;;2.90;;
66012;SDS011;52783;50.502;8.190;2023-09-07T13:55:04;7.13;;;2.92;;
66012;SDS011;52783;50.502;8.190;2023-09-07T13:57:30;6.45;;;2.80;;
66012;SDS011;52783;50.502;8.190;2023-09-07T13:59:55;7.82;;;3.00;;
66012;SDS011;52783;50.502;8.190;2023-09-07T14:02:21;10.20;;;3.80;;
66012;SDS011;52783;50.502;8.190;2023-09-07T14:04:46;6.10;;;3.20;;
66012;SDS011;52783;50.502;8.190;2023-09-07T14:07:12;4.70;;;2.60;;
66012;SDS011;52783;50.502;8.190;2023-09-07T14:09:38;5.95;;;2.60;;
66012;SDS011;52783;50.502;8.190;2023-09-07T14:12:03;5.13;;;2.70;;
66012;SDS011;52783;50.502;8.190;2023-09-07T14:14:29;2.72;;;2.53;;
66012;SDS011;52783;50.502;8.190;2023-09-07T14:16:54;4.25;;;3.15;;
66012;SDS011;52783;50.502;8.190;2023-09-07T14:19:22;4.40;;;2.80;;
66012;SDS011;52783;50.502;8.190;2023-09-07T14:21:48;5.05;;;2.90;;
66012;SDS011;52783;50.502;8.190;2023-09-07T14:24:14;3.67;;;2.67;;
66012;SDS011;52783;50.502;8.190;2023-09-07T14:26:39;3.58;;;2.80;;
66012;SDS011;52783;50.502;8.190;2023-09-07T14:29:05;4.00;;;2.83;;
66012;SDS011;52783;50.502;8.190;2023-09-07T14:31:30;7.07;;;3.10;;
66012;SDS011;52783;50.502;8.190;2023-09-07T14:33:56;5.30;;;2.88;;
66012;SDS011;52783;50.502;8.190;2023-09-07T14:36:21;5.90;;;3.10;;
66012;SDS011;52783;50.502;8.190;2023-09-07T14:38:47;3.05;;;2.75;;
66012;SDS011;52783;50.502;8.190;2023-09-07T14:41:12;4.43;;;3.00;;
66012;SDS011;52783;50.502;8.190;2023-09-07T14:43:44;9.57;;;3.08;;
66012;SDS011;52783;50.502;8.190;2023-09-07T14:46:10;3.28;;;2.83;;